Time;durP1;ratioP1;P1;durP2;ratioP2;P2;SDS_P1;SDS_P2;PMS_P1;PMS_P2;Temp;Humidity;BMP_temperature;BMP_pressure;BME280_temperature;BME280_humidity;BME280_pressure;Samples;Min_cycle;Max_cycle;Signal;HPM_P1;HPM_P2
2023/12/22 00:02:16;;;;;;;;;4.33;2.00;;;;;11.85;100.00;101343.31;5038050;28;45467;-76
2023/12/22 00:04:41;;;;;;;;;3.67;3.00;;;;;11.91;100.00;101343.91;5021604;28;45530;-76
2023/12/22 00:07:06;;;;;;;;;2.00;1.00;;;;;11.74;100.00;101319.97;5041701;28;45599;-76
2023/12/22 00:09:32;;;;;;;;;1.00;1.00;;;;;11.94;100.00;101358.84;5039863;28;46911;-77
2023/12/22 00:11:57;;;;;;;;;5.67;2.67;;;;;11.93;100.00;101344.72;5018279;28;45437;-76
2023/12/22 00:14:22;;;;;;;;;3.00;1.33;;;;;11.86;100.00;101332.66;5011210;28;45520;-76
2023/12/22 00:16:47;;;;;;;;;1.33;1.00;;;;;11.89;100.00;101337.84;5017040;28;64328;-77
2023/12/22 00:19:13;;;;;;;;;3.67;2.00;;;;;11.76;100.00;101331.34;5036463;28;45389;-76
2023/12/22 00:21:38;;;;;;;;;7.00;5.00;;;;;11.83;100.00;101331.94;5014394;28;45351;-77
2023/12/22 00:24:04;;;;;;;;;3.00;3.00;;;;;11.79;100.00;101327.69;5039523;28;45470;-76
2023/12/22 00:26:29;;;;;;;;;4.00;2.00;;;;;11.76;100.00;101334.00;5017902;28;45419;-76
2023/12/22 00:28:54;;;;;;;;;3.00;1.33;;;;;11.56;100.00;101306.59;5015077;28;45364;-76
2023/12/22 00:31:20;;;;;;;;;2.00;2.00;;;;;11.61;100.00;101321.38;5038548;28;45293;-76
2023/12/22 00:33:45;;;;;;;;;3.67;3.00;;;;;11.69;100.00;101319.25;5017721;28;45477;-76
2023/12/22 00:36:10;;;;;;;;;1.00;1.00;;;;;11.54;100.00;101289.91;5038545;28;46003;-76
2023/12/22 00:38:36;;;;;;;;;2.33;1.00;;;;;11.31;100.00;101280.31;5038850;28;45332;-76
2023/12/22 00:41:01;;;;;;;;;2.67;2.00;;;;;11.61;100.00;101326.69;5039201;28;50841;-75
2023/12/22 00:43:26;;;;;;;;;4.67;2.00;;;;;11.56;100.00;101328.66;5039187;28;45372;-75
2023/12/22 00:45:52;;;;;;;;;1.00;1.00;;;;;11.54;100.00;101305.81;5038059;28;48090;-76
2023/12/22 00:48:18;;;;;;;;;3.00;2.00;;;;;11.44;100.00;101300.91;5042306;28;45283;-76
2023/12/22 00:50:43;;;;;;;;;4.67;2.67;;;;;11.49;100.00;101306.00;5021375;28;45480;-76
2023/12/22 00:53:08;;;;;;;;;1.33;1.33;;;;;11.46;100.00;101320.25;5020593;28;54452;-77
2023/12/22 00:55:33;;;;;;;;;4.00;1.33;;;;;11.44;100.00;101310.66;5039030;28;45329;-76
2023/12/22 00:57:59;;;;;;;;;1.00;1.00;;;;;11.41;100.00;101305.47;5037497;28;59196;-76
2023/12/22 01:00:24;;;;;;;;;7.00;3.00;;;;;11.44;100.00;101310.66;5038935;28;45644;-75
2023/12/22 01:02:49;;;;;;;;;2.33;1.00;;;;;11.51;100.00;101325.34;5038092;28;45593;-76
2023/12/22 01:05:15;;;;;;;;;1.00;1.00;;;;;11.50;100.00;101323.63;5038867;28;51369;-76
2023/12/22 01:07:40;;;;;;;;;5.33;2.33;;;;;11.48;100.00;101323.69;5038429;28;45282;-75
2023/12/22 01:10:06;;;;;;;;;1.00;1.00;;;;;11.26;100.00;101272.56;5021531;28;48128;-75
2023/12/22 01:12:31;;;;;;;;;4.00;1.33;;;;;11.39;100.00;101326.72;5034066;28;45453;-75
2023/12/22 01:14:57;;;;;;;;;2.00;2.00;;;;;11.44;100.00;101348.59;5018312;28;60452;-75
2023/12/22 01:17:22;;;;;;;;;3.67;1.00;;;;;11.42;100.00;101336.31;5037679;28;45381;-76
2023/12/22 01:19:48;;;;;;;;;4.67;2.00;;;;;11.36;100.00;101316.25;5038280;28;45340;-76
2023/12/22 01:22:13;;;;;;;;;0.67;0.00;;;;;11.28;100.00;101318.38;5037777;28;45684;-76
2023/12/22 01:24:42;;;;;;;;;5.67;2.00;;;;;11.23;100.00;101314.19;5038669;28;46659;-76
2023/12/22 01:27:08;;;;;;;;;3.00;2.00;;;;;11.26;100.00;101328.16;5019300;28;46196;-76
2023/12/22 01:29:33;;;;;;;;;4.67;2.67;;;;;11.26;100.00;101325.50;5020179;28;45421;-76
2023/12/22 01:31:58;;;;;;;;;5.00;1.00;;;;;11.28;100.00;101320.16;5037452;28;45446;-76
2023/12/22 01:34:24;;;;;;;;;4.00;2.00;;;;;11.37;100.00;101336.53;5018992;28;59243;-76
2023/12/22 01:36:49;;;;;;;;;3.00;3.00;;;;;11.25;100.00;101318.50;5038048;28;48513;-76
2023/12/22 01:39:15;;;;;;;;;1.00;1.00;;;;;11.41;100.00;101346.06;5016579;28;45415;-76
2023/12/22 01:41:40;;;;;;;;;2.00;0.67;;;;;11.39;100.00;101342.63;5033489;28;45452;-76
2023/12/22 01:44:06;;;;;;;;;1.67;1.00;;;;;11.40;100.00;101330.22;5019289;28;45424;-76
2023/12/22 01:46:32;;;;;;;;;4.00;2.33;;;;;11.37;100.00;101309.19;5038844;28;45447;-76
2023/12/22 01:49:00;;;;;;;;;2.00;2.00;;;;;11.23;100.00;101306.25;5023313;28;45482;-75
2023/12/22 01:51:27;;;;;;;;;2.00;2.00;;;;;11.31;100.00;101320.91;5039346;28;45943;-78
2023/12/22 01:53:52;;;;;;;;;5.00;2.00;;;;;11.26;100.00;101306.09;5040123;28;45499;-77
2023/12/22 01:56:18;;;;;;;;;1.33;1.00;;;;;11.15;100.00;101279.25;5018590;28;45479;-75
2023/12/22 01:58:44;;;;;;;;;1.33;1.00;;;;;11.34;100.00;101320.78;5037530;28;45444;-76
2023/12/22 02:01:10;;;;;;;;;4.00;2.00;;;;;11.25;100.00;101315.00;5040060;28;45361;-76
2023/12/22 02:03:36;;;;;;;;;4.00;2.67;;;;;11.27;100.00;101326.38;5036600;28;45616;-76
2023/12/22 02:06:02;;;;;;;;;5.00;2.00;;;;;11.11;100.00;101309.41;5019757;28;45563;-77
2023/12/22 02:08:33;;;;;;;;;4.33;3.00;;;;;11.33;100.00;101353.47;5016413;28;45286;-76
2023/12/22 02:10:59;;;;;;;;;3.33;2.67;;;;;11.34;100.00;101349.03;5022558;28;45391;-76
2023/12/22 02:13:24;;;;;;;;;3.00;1.67;;;;;11.25;100.00;101338.84;5040230;28;59364;-75
2023/12/22 02:15:57;;;;;;;;;1.00;1.00;;;;;11.25;100.00;101338.84;5041223;28;45440;-75
2023/12/22 02:18:34;;;;;;;;;2.67;1.33;;;;;11.31;100.00;101367.69;5040599;28;45620;-76
2023/12/22 02:21:00;;;;;;;;;2.67;2.67;;;;;11.24;100.00;101353.84;5047848;28;46222;-76
2023/12/22 02:23:25;;;;;;;;;1.33;1.00;;;;;11.25;100.00;101362.66;5023078;28;50905;-76
2023/12/22 02:25:58;;;;;;;;;2.33;1.00;;;;;11.31;100.00;101370.34;5041143;28;45437;-76
2023/12/22 02:28:24;;;;;;;;;2.00;1.33;;;;;11.37;100.00;101378.03;5040868;28;45396;-76
2023/12/22 02:31:14;;;;;;;;;2.67;1.00;;;;;11.36;100.00;101371.00;5047317;28;45428;-76
2023/12/22 02:33:41;;;;;;;;;2.67;2.00;;;;;11.31;100.00;101365.06;5015933;28;45379;-76
2023/12/22 02:36:09;;;;;;;;;3.33;1.00;;;;;11.31;100.00;101380.94;5036264;28;45406;-75
2023/12/22 02:38:35;;;;;;;;;3.33;1.00;;;;;11.31;100.00;101373.00;5033580;28;45567;-76
2023/12/22 02:41:02;;;;;;;;;3.00;1.00;;;;;11.32;100.00;101375.56;5022224;28;45693;-76
2023/12/22 02:43:28;;;;;;;;;2.00;1.67;;;;;11.33;100.00;101379.94;5040337;28;46163;-76
2023/12/22 02:45:53;;;;;;;;;1.67;1.00;;;;;11.20;100.00;101365.47;5040346;28;45548;-76
2023/12/22 02:48:19;;;;;;;;;2.00;1.00;;;;;11.28;100.00;101374.00;5040335;28;45301;-76
2023/12/22 02:50:44;;;;;;;;;2.00;0.67;;;;;11.36;100.00;101378.94;5022539;28;45622;-78
2023/12/22 02:53:10;;;;;;;;;1.00;1.00;;;;;11.17;100.00;101340.91;5042210;28;45983;-76
2023/12/22 02:55:35;;;;;;;;;3.00;2.00;;;;;11.30;100.00;101348.28;5043122;28;45390;-75
2023/12/22 02:58:00;;;;;;;;;4.00;1.33;;;;;11.38;100.00;101377.13;5044890;28;45455;-76
2023/12/22 03:00:26;;;;;;;;;2.33;2.00;;;;;11.38;100.00;101370.03;5024395;28;45600;-76
2023/12/22 03:02:51;;;;;;;;;2.00;2.00;;;;;11.43;100.00;101369.84;5026896;28;45414;-77
2023/12/22 03:05:16;;;;;;;;;1.33;1.33;;;;;11.39;100.00;101354.97;5021518;28;45830;-76
2023/12/22 03:07:42;;;;;;;;;4.67;2.00;;;;;11.39;100.00;101347.91;5040705;28;45209;-76
2023/12/22 03:10:07;;;;;;;;;3.00;2.00;;;;;11.37;100.00;101341.81;5024112;28;45251;-76
2023/12/22 03:12:32;;;;;;;;;2.33;2.00;;;;;11.41;100.00;101354.03;5040534;28;46293;-77
2023/12/22 03:14:58;;;;;;;;;0.00;0.00;;;;;11.46;100.00;101357.31;5039048;28;45462;-77
2023/12/22 03:17:23;;;;;;;;;4.33;2.67;;;;;11.51;100.00;101351.84;5040432;28;45356;-76
2023/12/22 03:19:48;;;;;;;;;6.00;1.00;;;;;11.43;100.00;101327.44;5021477;28;62211;-76
2023/12/22 03:22:14;;;;;;;;;5.00;2.00;;;;;11.52;100.00;101338.53;5041328;28;49888;-76
2023/12/22 03:24:40;;;;;;;;;2.67;1.00;;;;;11.57;100.00;101354.22;5040363;28;45419;-77
2023/12/22 03:27:06;;;;;;;;;2.00;1.00;;;;;11.59;100.00;101346.19;5019793;28;45668;-76
2023/12/22 03:29:31;;;;;;;;;2.00;2.00;;;;;11.55;100.00;101347.28;5017692;28;45499;-76
2023/12/22 03:31:56;;;;;;;;;1.67;1.67;;;;;11.58;100.00;101358.63;5021602;28;54743;-76
2023/12/22 03:34:21;;;;;;;;;4.67;2.00;;;;;11.49;100.00;101343.94;5044606;28;45423;-76
2023/12/22 03:36:50;;;;;;;;;5.00;3.00;;;;;11.52;100.00;101337.66;5041278;28;45405;-76
2023/12/22 03:39:16;;;;;;;;;3.67;2.00;;;;;11.52;100.00;101333.22;5041107;28;45271;-76
2023/12/22 03:41:41;;;;;;;;;3.00;1.33;;;;;11.65;100.00;101344.16;5027062;28;46920;-76
2023/12/22 03:44:06;;;;;;;;;4.00;0.67;;;;;11.52;100.00;101319.13;5046229;28;45358;-76
2023/12/22 03:46:32;;;;;;;;;4.33;3.00;;;;;11.53;100.00;101331.44;5047555;28;45277;-76
2023/12/22 03:48:57;;;;;;;;;7.33;2.00;;;;;11.56;100.00;101338.38;5047728;28;45614;-76
2023/12/22 03:51:23;;;;;;;;;4.67;2.67;;;;;11.52;100.00;101338.53;5040408;28;45463;-76
2023/12/22 03:53:48;;;;;;;;;2.67;1.67;;;;;11.54;100.00;101337.59;5039416;28;45554;-76
2023/12/22 03:56:13;;;;;;;;;1.33;1.33;;;;;11.61;100.00;101350.53;5039512;28;45423;-76
2023/12/22 03:58:39;;;;;;;;;2.00;0.67;;;;;11.57;100.00;101341.00;5042621;28;49217;-75
2023/12/22 04:01:07;;;;;;;;;4.67;2.67;;;;;11.64;100.00;101349.53;5044152;28;54989;-76
2023/12/22 04:03:32;;;;;;;;;4.00;2.00;;;;;11.63;100.00;101351.31;5041658;28;45534;-75
2023/12/22 04:05:57;;;;;;;;;3.00;2.00;;;;;11.55;100.00;101326.94;5040692;28;45377;-75
2023/12/22 04:08:23;;;;;;;;;2.67;2.00;;;;;11.66;100.00;101351.19;5041799;28;57693;-75
2023/12/22 04:10:48;;;;;;;;;4.00;2.00;;;;;11.72;100.00;101361.53;5041347;28;45571;-75
2023/12/22 04:13:14;;;;;;;;;5.67;1.33;;;;;11.75;100.00;101363.19;5041504;28;45289;-74
2023/12/22 04:15:39;;;;;;;;;4.33;2.33;;;;;11.68;100.00;101359.91;5024524;28;45495;-75
2023/12/22 04:18:05;;;;;;;;;2.00;0.00;;;;;11.72;100.00;101358.03;5046717;28;45289;-75
2023/12/22 04:20:31;;;;;;;;;1.00;0.00;;;;;11.71;100.00;101374.88;5038486;28;45582;-75
2023/12/22 04:22:56;;;;;;;;;3.67;1.00;;;;;11.67;100.00;101367.94;5043155;28;45211;-76
2023/12/22 04:25:23;;;;;;;;;0.00;0.00;;;;;11.62;100.00;101375.22;5043537;28;45281;-75
2023/12/22 04:27:49;;;;;;;;;1.33;0.00;;;;;11.40;100.00;101348.78;5039861;28;45223;-76
2023/12/22 04:30:14;;;;;;;;;0.00;0.00;;;;;11.38;100.00;101358.59;5023384;28;47013;-76
2023/12/22 04:32:40;;;;;;;;;0.67;0.67;;;;;11.42;100.00;101373.41;5038019;28;45326;-75
2023/12/22 04:35:05;;;;;;;;;1.00;0.00;;;;;11.29;100.00;101356.28;5026174;28;45340;-75
2023/12/22 04:37:30;;;;;;;;;0.00;0.00;;;;;11.26;100.00;101354.63;5022551;28;45462;-76
2023/12/22 04:39:56;;;;;;;;;1.33;0.00;;;;;11.28;100.00;101366.03;5039456;28;55607;-76
2023/12/22 04:42:21;;;;;;;;;2.00;1.00;;;;;11.18;100.00;101372.63;5037583;28;45459;-75
2023/12/22 04:44:46;;;;;;;;;2.00;0.00;;;;;11.12;100.00;101359.66;5039156;28;45420;-78
2023/12/22 04:47:13;;;;;;;;;2.00;0.00;;;;;11.21;100.00;101361.91;5038464;28;45695;-76
2023/12/22 04:49:41;;;;;;;;;0.00;0.00;;;;;11.09;100.00;101345.69;5039124;28;45603;-75
2023/12/22 04:52:06;;;;;;;;;3.00;0.67;;;;;10.99;100.00;101330.16;5036943;28;50022;-76
2023/12/22 04:54:32;;;;;;;;;0.00;0.00;;;;;11.10;100.00;101355.31;5037553;28;47749;-78
2023/12/22 04:56:57;;;;;;;;;2.00;0.67;;;;;10.94;100.00;101323.31;5039491;28;54445;-77
2023/12/22 04:59:22;;;;;;;;;0.67;0.00;;;;;10.95;100.00;101323.28;5042605;28;47474;-77
2023/12/22 05:01:48;;;;;;;;;2.00;0.00;;;;;10.90;100.00;101314.66;5041627;28;55965;-78
2023/12/22 05:04:13;;;;;;;;;1.00;0.00;;;;;11.00;100.00;101333.66;5035527;28;45369;-77
2023/12/22 05:06:38;;;;;;;;;0.00;0.00;;;;;10.95;100.00;101336.50;5041086;28;58133;-77
2023/12/22 05:09:04;;;;;;;;;0.67;0.67;;;;;10.99;100.00;101353.97;5023248;28;46955;-78
2023/12/22 05:11:29;;;;;;;;;0.00;0.00;;;;;11.05;100.00;101359.97;5040205;28;45450;-78
2023/12/22 05:13:55;;;;;;;;;2.00;0.00;;;;;11.07;100.00;101363.38;5045126;28;45470;-77
2023/12/22 05:16:20;;;;;;;;;0.00;0.00;;;;;10.95;100.00;101346.22;5025880;28;46173;-77
2023/12/22 05:18:46;;;;;;;;;2.00;0.67;;;;;10.98;100.00;101362.84;5043234;28;46289;-77
2023/12/22 05:21:13;;;;;;;;;1.00;1.00;;;;;11.03;100.00;101356.53;5027810;28;45536;-77
2023/12/22 05:23:38;;;;;;;;;0.33;0.33;;;;;10.98;100.00;101362.84;5044865;28;45447;-76
2023/12/22 05:26:04;;;;;;;;;4.33;0.33;;;;;10.99;100.00;101359.25;5038762;28;57516;-76
2023/12/22 05:28:29;;;;;;;;;4.00;0.00;;;;;10.94;100.00;101344.50;5042825;28;45730;-77
2023/12/22 05:30:54;;;;;;;;;0.33;0.33;;;;;10.70;100.00;101311.94;5037075;28;52298;-77
2023/12/22 05:33:19;;;;;;;;;2.67;1.00;;;;;10.92;100.00;101333.13;5042320;28;45751;-77
2023/12/22 05:35:45;;;;;;;;;0.67;0.67;;;;;10.82;100.00;101315.88;5043929;28;59652;-77
2023/12/22 05:38:10;;;;;;;;;1.00;1.00;;;;;10.98;100.00;101344.31;5037287;28;48214;-77
2023/12/22 05:40:35;;;;;;;;;1.00;0.00;;;;;10.88;100.00;101315.63;5036956;28;46398;-77
2023/12/22 05:43:01;;;;;;;;;0.00;0.00;;;;;10.99;100.00;101342.53;5038116;28;45479;-77
2023/12/22 05:45:26;;;;;;;;;0.00;0.00;;;;;10.94;100.00;101349.78;5043178;28;45595;-77
2023/12/22 05:47:51;;;;;;;;;0.33;0.00;;;;;10.89;100.00;101320.88;5045532;28;57286;-77
2023/12/22 05:50:17;;;;;;;;;1.00;0.00;;;;;10.96;100.00;101330.28;5046688;28;45250;-77
2023/12/22 05:52:44;;;;;;;;;0.00;0.00;;;;;10.98;100.00;101320.50;5045612;28;45606;-77
2023/12/22 05:55:10;;;;;;;;;2.33;0.00;;;;;10.98;100.00;101333.75;5044711;28;45584;-77
2023/12/22 05:57:35;;;;;;;;;0.00;0.00;;;;;10.97;100.00;101329.34;5044632;28;45422;-78
2023/12/22 06:00:00;;;;;;;;;1.00;0.00;;;;;11.04;100.00;101329.09;5044083;28;54158;-77
2023/12/22 06:02:26;;;;;;;;;1.00;0.00;;;;;10.93;100.00;101316.28;5023115;28;47226;-78
2023/12/22 06:04:51;;;;;;;;;0.00;0.00;;;;;11.09;100.00;101343.03;5026241;28;45302;-76
2023/12/22 06:07:16;;;;;;;;;0.00;0.00;;;;;11.10;100.00;101350.03;5048216;28;51665;-78
2023/12/22 06:09:42;;;;;;;;;0.00;0.00;;;;;10.95;100.00;101320.63;5047718;28;64214;-79
2023/12/22 06:12:07;;;;;;;;;1.67;0.00;;;;;10.95;100.00;101323.28;5042667;28;45337;-78
2023/12/22 06:14:34;;;;;;;;;1.00;1.00;;;;;11.09;100.00;101348.31;5043990;28;45692;-78
2023/12/22 06:17:00;;;;;;;;;1.33;0.00;;;;;11.12;100.00;101349.06;5044963;28;45419;-80
2023/12/22 06:19:28;;;;;;;;;0.00;0.00;;;;;11.15;100.00;101345.44;5044304;28;45308;-79
2023/12/22 06:21:53;;;;;;;;;0.00;0.00;;;;;11.03;100.00;101338.00;5029978;28;45370;-77
2023/12/22 06:24:19;;;;;;;;;2.00;1.00;;;;;11.04;100.00;101337.91;5046938;28;45707;-77
2023/12/22 06:26:44;;;;;;;;;2.00;0.00;;;;;11.10;100.00;101347.38;5046431;28;61392;-79
2023/12/22 06:29:09;;;;;;;;;0.00;0.00;;;;;11.12;100.00;101353.50;5027710;28;62669;-79
2023/12/22 06:31:35;;;;;;;;;2.33;0.00;;;;;11.06;100.00;101359.03;5042964;28;45412;-79
2023/12/22 06:34:02;;;;;;;;;0.00;0.00;;;;;11.12;100.00;101364.94;5046257;28;45686;-78
2023/12/22 06:36:29;;;;;;;;;1.00;0.00;;;;;11.14;100.00;101370.16;5042273;28;45509;-79
2023/12/22 06:38:55;;;;;;;;;0.00;0.00;;;;;11.13;100.00;101363.13;5043928;28;45293;-78
2023/12/22 06:41:25;;;;;;;;;1.00;0.00;;;;;11.15;100.00;101356.00;5035111;28;45683;-78
2023/12/22 06:43:51;;;;;;;;;0.00;0.00;;;;;11.17;100.00;101360.31;5026813;28;45591;-78
2023/12/22 06:46:18;;;;;;;;;0.00;0.00;;;;;11.17;100.00;101351.50;5028501;28;46509;-79
2023/12/22 06:48:43;;;;;;;;;0.33;0.00;;;;;11.10;100.00;101339.44;5055781;28;45444;-79
2023/12/22 06:51:19;;;;;;;;;2.00;0.00;;;;;11.05;100.00;101331.72;5037297;28;45576;-78
2023/12/22 06:53:45;;;;;;;;;2.00;0.00;;;;;11.16;100.00;101340.06;5050958;28;46191;-78
2023/12/22 06:56:18;;;;;;;;;0.00;0.00;;;;;11.14;100.00;101338.41;5049692;28;46798;-79
2023/12/22 06:58:44;;;;;;;;;2.33;0.00;;;;;11.15;100.00;101334.84;5053691;28;45691;-78
2023/12/22 07:01:09;;;;;;;;;0.67;0.00;;;;;11.16;100.00;101347.16;5030645;28;46568;-79
2023/12/22 07:03:37;;;;;;;;;1.00;0.00;;;;;11.08;100.00;101328.06;5029818;28;45648;-78
2023/12/22 07:06:02;;;;;;;;;0.00;0.00;;;;;11.15;100.00;101351.59;5049771;28;45536;-78
2023/12/22 07:08:28;;;;;;;;;1.33;0.00;;;;;11.10;100.00;101342.94;5041838;28;45463;-77
2023/12/22 07:10:53;;;;;;;;;0.00;0.00;;;;;11.05;100.00;101339.66;5021465;28;52754;-80
2023/12/22 07:13:18;;;;;;;;;2.00;0.00;;;;;11.04;100.00;101345.00;5031247;28;50859;-78
2023/12/22 07:15:44;;;;;;;;;1.33;0.00;;;;;11.06;100.00;101353.75;5040670;28;45261;-79
2023/12/22 07:18:09;;;;;;;;;0.00;0.00;;;;;11.09;100.00;101370.38;5022168;28;45443;-78
2023/12/22 07:20:34;;;;;;;;;0.33;0.00;;;;;11.06;100.00;101364.34;5041096;28;45391;-79
2023/12/22 07:23:00;;;;;;;;;4.33;0.00;;;;;10.92;100.00;101362.22;5021203;28;60225;-79
2023/12/22 07:25:25;;;;;;;;;0.00;0.00;;;;;11.00;100.00;101349.53;5023213;28;47043;-79
2023/12/22 07:27:51;;;;;;;;;4.33;0.00;;;;;11.07;100.00;101361.59;5041257;28;52627;-79
2023/12/22 07:30:17;;;;;;;;;0.00;0.00;;;;;10.92;100.00;101341.94;5040013;28;45422;-78
2023/12/22 07:32:48;;;;;;;;;0.00;0.00;;;;;11.06;100.00;101370.47;5037587;28;45498;-78
2023/12/22 07:35:13;;;;;;;;;0.00;0.00;;;;;10.99;100.00;101358.44;5008619;28;45639;-80
2023/12/22 07:37:39;;;;;;;;;0.33;0.00;;;;;11.02;100.00;101366.25;5037381;28;45376;-79
2023/12/22 07:40:05;;;;;;;;;2.00;0.67;;;;;11.06;100.00;101370.47;5039321;28;45443;-80
2023/12/22 07:42:30;;;;;;;;;3.00;1.00;;;;;11.01;100.00;101356.56;5040157;28;45411;-77
2023/12/22 07:44:56;;;;;;;;;2.67;0.00;;;;;11.02;100.00;101362.72;5038377;28;60742;-79
2023/12/22 07:47:21;;;;;;;;;2.00;1.00;;;;;11.02;100.00;101373.31;5021241;28;45400;-79
2023/12/22 07:49:49;;;;;;;;;0.00;0.00;;;;;11.05;100.00;101382.00;5036066;28;45456;-80
2023/12/22 07:52:15;;;;;;;;;0.00;0.00;;;;;11.09;100.00;101388.91;5018528;28;45508;-78
2023/12/22 07:54:40;;;;;;;;;0.67;0.67;;;;;11.15;100.00;101379.84;5029518;28;45325;-79
2023/12/22 07:57:05;;;;;;;;;1.67;0.00;;;;;11.11;100.00;101383.53;5038148;28;53892;-79
2023/12/22 07:59:31;;;;;;;;;1.00;0.00;;;;;11.18;100.00;101385.00;5014032;28;45265;-79
2023/12/22 08:01:56;;;;;;;;;0.00;0.00;;;;;11.10;100.00;101381.78;5030500;28;45661;-78
2023/12/22 08:04:21;;;;;;;;;0.00;0.00;;;;;11.09;100.00;101396.84;5021812;28;47161;-79
2023/12/22 08:06:47;;;;;;;;;1.00;0.00;;;;;11.19;100.00;101405.28;5020593;28;45350;-80
2023/12/22 08:09:12;;;;;;;;;0.00;0.00;;;;;11.08;100.00;101400.41;5039083;28;45435;-79
2023/12/22 08:11:37;;;;;;;;;0.00;0.00;;;;;11.11;100.00;101408.22;5038545;28;61915;-79
2023/12/22 08:14:03;;;;;;;;;0.67;0.00;;;;;11.15;100.00;101419.56;5038508;28;45505;-78
2023/12/22 08:16:28;;;;;;;;;1.00;1.00;;;;;11.04;100.00;101397.94;5038829;28;45417;-79
2023/12/22 08:18:57;;;;;;;;;0.00;0.00;;;;;10.72;100.00;101347.13;5039444;28;45333;-79
2023/12/22 08:21:22;;;;;;;;;1.00;0.00;;;;;11.08;100.00;101405.69;5018172;28;45545;-79
2023/12/22 08:23:47;;;;;;;;;1.00;0.00;;;;;11.12;100.00;101412.59;5028575;28;54833;-79
2023/12/22 08:26:17;;;;;;;;;0.00;0.00;;;;;11.12;100.00;101417.91;5037514;28;53235;-79
2023/12/22 08:28:42;;;;;;;;;0.00;0.00;;;;;11.17;100.00;101412.41;5029432;28;45378;-78
2023/12/22 08:31:07;;;;;;;;;1.00;0.00;;;;;10.99;100.00;101391.03;5040347;28;45258;-79
2023/12/22 08:33:32;;;;;;;;;0.33;0.33;;;;;11.09;100.00;101398.63;5039569;28;45394;-78
2023/12/22 08:35:58;;;;;;;;;0.00;0.00;;;;;11.21;100.00;101417.53;5038372;28;55497;-78
2023/12/22 08:38:23;;;;;;;;;1.00;1.00;;;;;11.11;100.00;101394.97;5038385;28;45478;-78
2023/12/22 08:40:48;;;;;;;;;0.00;0.00;;;;;11.26;100.00;101412.03;5039011;28;45427;-78
2023/12/22 08:43:14;;;;;;;;;1.00;0.00;;;;;11.25;100.00;101405.91;5020410;28;47453;-78
2023/12/22 08:45:39;;;;;;;;;0.00;0.00;;;;;11.29;100.00;101402.19;5026650;28;45653;-79
2023/12/22 08:48:07;;;;;;;;;0.67;0.67;;;;;11.21;100.00;101385.75;5037569;28;45494;-78
2023/12/22 08:50:33;;;;;;;;;0.00;0.00;;;;;11.30;100.00;101398.59;5008536;28;45366;-79
2023/12/22 08:52:58;;;;;;;;;0.00;0.00;;;;;11.39;100.00;101405.31;5013911;28;46760;-80
2023/12/22 08:55:23;;;;;;;;;0.00;0.00;;;;;11.40;100.00;101409.69;5019376;28;63213;-80
2023/12/22 08:57:49;;;;;;;;;2.00;0.00;;;;;11.43;100.00;101409.56;5036855;28;48537;-79
2023/12/22 09:00:14;;;;;;;;;2.67;0.00;;;;;11.48;100.00;101420.84;5038663;28;45377;-79
2023/12/22 09:02:40;;;;;;;;;2.67;0.00;;;;;11.49;100.00;101418.13;5016932;28;46550;-78
2023/12/22 09:05:07;;;;;;;;;0.67;0.67;;;;;11.38;100.00;101393.00;5030996;28;45384;-78
2023/12/22 09:07:32;;;;;;;;;0.00;0.00;;;;;11.52;100.00;101418.00;5038147;28;45245;-79
2023/12/22 09:09:57;;;;;;;;;3.33;1.00;;;;;11.41;100.00;101411.41;5037094;28;45560;-78
2023/12/22 09:12:23;;;;;;;;;0.00;0.00;;;;;11.47;100.00;101446.47;5030650;28;51369;-78
2023/12/22 09:14:49;;;;;;;;;2.00;0.00;;;;;11.50;100.00;101430.44;5038328;28;48065;-78
2023/12/22 09:17:16;;;;;;;;;2.00;0.33;;;;;11.50;100.00;101430.44;5033736;28;45459;-78
2023/12/22 09:19:42;;;;;;;;;2.00;0.00;;;;;11.62;100.00;101429.06;5031631;28;45447;-78
2023/12/22 09:22:08;;;;;;;;;1.33;0.00;;;;;11.61;100.00;101415.91;5017595;28;46518;-78
2023/12/22 09:24:33;;;;;;;;;1.00;0.00;;;;;11.64;100.00;101406.03;5037698;28;45289;-79
2023/12/22 09:27:02;;;;;;;;;1.00;1.00;;;;;11.84;100.00;101427.31;5036036;28;45296;-78
2023/12/22 09:29:35;;;;;;;;;1.00;1.00;;;;;11.90;100.00;101436.78;5037301;28;45521;-79
2023/12/22 09:32:01;;;;;;;;;2.00;1.00;;;;;11.77;100.00;101403.75;5020029;28;47792;-79
2023/12/22 09:34:27;;;;;;;;;3.00;1.00;;;;;11.90;100.00;101429.69;5039580;28;45438;-79
2023/12/22 09:36:53;;;;;;;;;0.00;0.00;;;;;11.94;100.00;101431.25;5031905;28;45586;-79
2023/12/22 09:39:18;;;;;;;;;1.00;1.00;;;;;11.84;100.00;101415.84;5018256;28;45299;-79
2023/12/22 09:41:48;;;;;;;;;0.00;0.00;;;;;12.00;100.00;101432.81;5038505;28;50427;-79
2023/12/22 09:44:19;;;;;;;;;2.00;0.00;;;;;12.00;100.00;101438.97;5018654;28;45369;-80
2023/12/22 09:46:45;;;;;;;;;0.00;0.00;;;;;12.05;100.00;101453.78;5035877;28;45614;-79
2023/12/22 09:49:12;;;;;;;;;2.00;0.67;;;;;11.95;100.00;101448.88;5008062;28;45365;-78
2023/12/22 09:51:39;;;;;;;;;2.00;0.00;;;;;12.00;100.00;101465.47;5032831;28;46206;-76
2023/12/22 09:54:06;;;;;;;;;0.00;0.00;;;;;12.00;100.00;101465.47;5008879;28;45334;-78
2023/12/22 09:56:33;;;;;;;;;1.67;1.00;;;;;11.89;100.00;101449.16;5037297;28;45392;-78
2023/12/22 09:59:00;;;;;;;;;0.00;0.00;;;;;11.97;100.00;101441.75;5014862;28;45385;-78
2023/12/22 10:01:26;;;;;;;;;2.33;1.00;;;;;11.91;100.00;101452.59;5017322;28;46885;-79
2023/12/22 10:03:52;;;;;;;;;0.00;0.00;;;;;11.89;100.00;101449.16;5021455;28;45446;-77
2023/12/22 10:06:18;;;;;;;;;0.00;0.00;;;;;11.95;100.00;101445.38;5016231;28;45413;-78
2023/12/22 10:08:46;;;;;;;;;0.00;0.00;;;;;11.92;100.00;101453.47;5034868;28;45518;-78
2023/12/22 10:11:12;;;;;;;;;0.00;0.00;;;;;12.00;100.00;101465.47;5015736;28;46554;-77
2023/12/22 10:13:40;;;;;;;;;0.00;0.00;;;;;12.00;100.00;101451.38;5032780;28;45424;-79
2023/12/22 10:16:06;;;;;;;;;0.00;0.00;;;;;11.86;100.00;101444.00;5037606;28;45559;-77
2023/12/22 10:18:33;;;;;;;;;1.00;0.00;;;;;11.90;100.00;101444.72;5024721;28;45502;-78
2023/12/22 10:20:58;;;;;;;;;0.67;0.67;;;;;12.02;100.00;101470.69;5016568;28;45411;-78
2023/12/22 10:23:23;;;;;;;;;1.67;1.00;;;;;11.98;100.00;101458.50;5032728;28;45437;-78
2023/12/22 10:25:51;;;;;;;;;2.00;0.00;;;;;12.05;100.00;101473.22;5020237;28;45475;-78
2023/12/22 10:28:16;;;;;;;;;0.33;0.00;;;;;11.97;100.00;101448.84;5018934;28;45521;-79
2023/12/22 10:30:45;;;;;;;;;2.00;1.00;;;;;12.08;100.00;101458.97;5012449;28;47868;-78
2023/12/22 10:33:11;;;;;;;;;1.00;1.00;;;;;11.96;100.00;101437.38;5028775;28;45484;-78
2023/12/22 10:35:36;;;;;;;;;0.33;0.00;;;;;12.08;100.00;101451.00;5022429;28;45587;-78
2023/12/22 10:38:03;;;;;;;;;0.00;0.00;;;;;12.01;100.00;101442.47;5019519;28;45496;-78
2023/12/22 10:40:29;;;;;;;;;2.67;1.00;;;;;12.16;100.00;101467.47;5041748;28;46120;-79
2023/12/22 10:42:55;;;;;;;;;0.67;0.67;;;;;12.09;100.00;101463.34;5028432;28;45785;-78
2023/12/22 10:45:21;;;;;;;;;0.33;0.00;;;;;11.95;100.00;101440.06;5041528;28;45299;-78
2023/12/22 10:47:50;;;;;;;;;0.00;0.00;;;;;12.13;100.00;101468.47;5039570;28;45366;-78
2023/12/22 10:50:18;;;;;;;;;1.00;0.00;;;;;12.11;100.00;101480.03;5034191;28;45451;-78
2023/12/22 10:52:49;;;;;;;;;0.00;0.00;;;;;12.07;100.00;101457.25;5015993;28;45523;-78
2023/12/22 10:55:15;;;;;;;;;1.00;1.00;;;;;11.97;100.00;101457.66;5037891;28;45281;-78
2023/12/22 10:57:40;;;;;;;;;2.33;0.33;;;;;11.97;100.00;101467.41;5041505;28;45322;-77
2023/12/22 11:00:09;;;;;;;;;3.00;1.00;;;;;11.88;100.00;101462.47;5041015;28;55595;-78
2023/12/22 11:02:36;;;;;;;;;3.00;1.00;;;;;11.87;100.00;101450.16;5040342;28;45381;-78
2023/12/22 11:05:08;;;;;;;;;4.00;1.33;;;;;11.79;100.00;101433.69;5040715;28;45392;-79
2023/12/22 11:07:35;;;;;;;;;0.00;0.00;;;;;11.70;100.00;101421.72;5019143;28;45436;-79
2023/12/22 11:10:06;;;;;;;;;2.67;1.00;;;;;11.65;100.00;101410.38;5037253;28;45989;-78
2023/12/22 11:12:46;;;;;;;;;1.33;1.00;;;;;11.78;100.00;101419.59;5041794;28;45384;-79